Portada
METAR-TAF:

METAR-TAF

Aeroports :

Aeroport de Bilbao

Bilbao, Espanya

latitud: 43-18N, longitud: 002-56W, altitud: 42 m

Observació

L'informe es va fer fa 29 minuts, a les 23:00 UTC
Vent 3 kt del Est
Temperatura 9°C
Humitat 100%
Pressió 1021 hPa
Visibilitat 10 km o més
pluja

METAR: LEBB 212300Z AUTO 09003KT 9999 -RA NSC 09/09 Q1021

Hora: 01:29 (23:29 UTC)

Pronòstic

L'informe es va fer fa 6 hores i 29 minuts, a les 17:00 UTC
Pronòstic vàlid del 21 a les 18 UTC al 22 a les 18 UTC
Vent 5 kt amb direcció variable
Visibilitat 10 km o més
Núvols disperses a una alçada de 4000 ft
Probabilitat 40% :
Temporalment
l' 21 a les 18 UTC al 21 a les 20 UTC
Núvols disperses a una alçada de 3000 ft, Cumulus congestus.
Temporalment
l' 22 a les 12 UTC al 22 a les 18 UTC
Vent 10 kt del Nord
Visibilitat: 3000 m
Cel ennuvolat a una alçada de 1000 ft
pluja

TAF: LEBB 211700Z 2118/2218 VRB05KT 9999 SCT040 TX16/2214Z TN07/2206Z PROB40 TEMPO 2118/2120 SCT030TCU TEMPO 2212/2218 36010KT 3000 RA BKN010

Observacions i pronòstics meteorològics de més de 4000 aeroports (METAR i TAF).

Les estacions disponibles són els punts grocs i vermells al mapa.

Posi el ratolí al punt desitjat per veure el nom de l'estació.

Feu clic per veure les observacions i els pronòstics meteorològics.

Per canviar el mapa: feu clic els botons verds amb una creu de color negre per apropar; al botó verd amb un guió per allunyar la imatge; o en les fletxes verdes per a mapes adjacents.


METAR-TAF: